createdAt,value
2022-09-15T00:00:52.325Z,6.70
2022-09-15T00:04:48.734Z,6.10
2022-09-15T00:08:36.414Z,6.20
2022-09-15T00:12:23.951Z,6.10
2022-09-15T00:16:08.729Z,6.10
2022-09-15T00:19:56.160Z,6.50
2022-09-15T00:23:42.362Z,6.80
2022-09-15T00:27:28.657Z,7.10
2022-09-15T00:31:16.197Z,7.00
2022-09-15T00:35:03.750Z,6.40
2022-09-15T00:38:51.385Z,5.80
2022-09-15T00:42:39.157Z,6.10
2022-09-15T00:46:26.608Z,6.60
2022-09-15T00:50:14.628Z,6.40
2022-09-15T00:54:02.041Z,6.50
2022-09-15T00:57:49.579Z,6.60
2022-09-15T01:01:37.238Z,5.70
2022-09-15T01:05:17.946Z,6.40
2022-09-15T01:08:12.060Z,6.30
2022-09-15T01:11:43.335Z,6.30
2022-09-15T01:15:31.136Z,7.00
2022-09-15T01:19:17.013Z,7.00
2022-09-15T01:22:54.560Z,6.40
2022-09-15T01:26:46.306Z,9.10
2022-09-15T01:30:35.111Z,6.80
2022-09-15T01:34:31.471Z,6.60
2022-09-15T01:38:18.910Z,7.20
2022-09-15T01:42:11.796Z,6.40
2022-09-15T01:46:01.777Z,6.60
2022-09-15T01:49:49.274Z,6.60
2022-09-15T01:53:11.436Z,6.80
2022-09-15T01:57:11.244Z,6.50
2022-09-15T02:00:58.816Z,6.40
2022-09-15T02:05:01.641Z,7.00
2022-09-15T02:08:52.017Z,7.00
2022-09-15T02:12:45.331Z,7.00
2022-09-15T02:16:42.145Z,6.60
2022-09-15T02:20:56.893Z,7.20
2022-09-15T02:24:44.405Z,6.70
2022-09-15T02:28:31.748Z,6.10
2022-09-15T02:32:10.359Z,8.20
2022-09-15T02:35:58.025Z,6.60
2022-09-15T02:39:45.580Z,7.20
2022-09-15T02:43:31.317Z,7.30
2022-09-15T02:47:01.476Z,6.80
2022-09-15T02:50:28.246Z,7.20
2022-09-15T02:54:06.232Z,6.70
2022-09-15T02:57:53.666Z,6.60
2022-09-15T03:01:41.127Z,10.00
2022-09-15T03:05:08.633Z,9.70
2022-09-15T03:08:50.369Z,8.40
2022-09-15T03:12:38.503Z,8.60
2022-09-15T03:16:25.959Z,7.20
2022-09-15T03:20:19.145Z,6.90
2022-09-15T03:23:56.630Z,7.70
2022-09-15T03:27:46.971Z,7.00
2022-09-15T03:31:04.934Z,7.50
2022-09-15T03:34:56.405Z,6.90
2022-09-15T03:38:40.101Z,7.30
2022-09-15T03:42:27.524Z,7.60
2022-09-15T03:46:15.219Z,8.20
2022-09-15T03:50:02.714Z,7.10
2022-09-15T03:53:34.310Z,8.50
2022-09-15T03:57:22.087Z,7.80
2022-09-15T04:01:02.768Z,7.80
2022-09-15T04:04:50.261Z,8.10
2022-09-15T04:08:37.619Z,7.80
2022-09-15T04:12:17.972Z,8.30
2022-09-15T04:15:48.717Z,8.50
2022-09-15T04:19:36.429Z,8.50
2022-09-15T04:23:06.494Z,8.10
2022-09-15T04:26:54.047Z,8.00
2022-09-15T04:30:42.563Z,8.60
2022-09-15T04:34:30.344Z,7.90
2022-09-15T04:38:17.975Z,8.50
2022-09-15T04:42:05.432Z,8.00
2022-09-15T04:45:33.717Z,9.10
2022-09-15T04:48:24.970Z,8.20
2022-09-15T04:51:58.867Z,8.20
2022-09-15T04:55:47.525Z,8.50
2022-09-15T04:59:19.745Z,7.90
2022-09-15T05:03:07.810Z,7.40
2022-09-15T05:06:41.496Z,7.70
2022-09-15T05:10:29.376Z,8.20
2022-09-15T05:14:07.078Z,6.90
2022-09-15T05:17:40.213Z,8.00
2022-09-15T05:21:28.057Z,8.90
2022-09-15T05:25:15.729Z,7.70
2022-09-15T05:29:03.601Z,7.60
2022-09-15T05:32:51.095Z,8.40
2022-09-15T05:36:29.737Z,7.70
2022-09-15T05:40:15.778Z,7.10
2022-09-15T05:44:03.537Z,6.60
2022-09-15T05:47:33.564Z,7.00
2022-09-15T05:51:21.084Z,7.50
2022-09-15T05:55:08.697Z,7.90
2022-09-15T05:58:56.283Z,7.10
2022-09-15T06:02:43.907Z,6.70
2022-09-15T06:06:31.449Z,6.90
2022-09-15T06:10:19.029Z,6.80
2022-09-15T06:14:06.489Z,7.00
2022-09-15T06:17:47.118Z,6.80
2022-09-15T06:21:34.611Z,6.20
2022-09-15T06:25:22.165Z,6.40
2022-09-15T06:29:09.799Z,6.00
2022-09-15T06:32:55.149Z,6.10
2022-09-15T06:36:23.994Z,6.40
2022-09-15T06:39:39.157Z,6.10
2022-09-15T06:42:37.832Z,6.20
2022-09-15T06:46:26.248Z,6.00
2022-09-15T06:50:14.391Z,5.80
2022-09-15T06:54:01.881Z,5.70
2022-09-15T06:57:49.681Z,5.60
2022-09-15T07:01:12.942Z,5.60
2022-09-15T07:04:52.523Z,5.30
2022-09-15T07:08:32.771Z,5.30
2022-09-15T07:12:22.922Z,5.40
2022-09-15T07:16:10.921Z,5.00
2022-09-15T07:19:58.439Z,4.90
2022-09-15T07:23:46.068Z,5.00
2022-09-15T07:27:33.840Z,4.90
2022-09-15T07:31:21.593Z,4.40
2022-09-15T07:35:09.441Z,4.40
2022-09-15T07:38:57.091Z,4.20
2022-09-15T07:42:44.774Z,4.30
2022-09-15T07:46:32.380Z,4.40
2022-09-15T07:50:19.780Z,4.10
2022-09-15T07:54:07.238Z,4.50
2022-09-15T07:57:56.018Z,4.50
2022-09-15T08:01:43.676Z,4.80
2022-09-15T08:05:34.766Z,4.30
2022-09-15T08:09:26.942Z,4.40
2022-09-15T08:13:14.719Z,3.70
2022-09-15T08:16:54.229Z,3.60
2022-09-15T08:20:35.147Z,4.50
2022-09-15T08:24:13.337Z,3.80
2022-09-15T08:28:01.280Z,3.60
2022-09-15T08:31:49.250Z,4.20
2022-09-15T08:35:37.427Z,4.00
2022-09-15T08:39:26.077Z,4.30
2022-09-15T08:43:14.241Z,4.00
2022-09-15T08:47:08.485Z,3.40
2022-09-15T08:51:02.534Z,3.50
2022-09-15T08:54:52.929Z,3.60
2022-09-15T08:58:40.449Z,3.10
2022-09-15T09:02:32.311Z,2.20
2022-09-15T09:06:34.692Z,3.00
2022-09-15T09:10:30.329Z,2.70
2022-09-15T09:14:23.725Z,2.80
2022-09-15T09:18:12.461Z,3.00
2022-09-15T09:22:07.879Z,3.60
2022-09-15T09:25:55.414Z,4.30
2022-09-15T09:29:55.935Z,3.50
2022-09-15T09:33:48.154Z,2.90
2022-09-15T09:37:36.849Z,3.70
2022-09-15T09:41:24.492Z,3.10
2022-09-15T09:45:12.296Z,2.30
2022-09-15T09:48:54.284Z,2.60
2022-09-15T09:52:50.786Z,2.70
2022-09-15T09:56:41.490Z,3.00
2022-09-15T10:00:35.895Z,2.60
2022-09-15T10:04:25.106Z,3.10
2022-09-15T10:08:07.903Z,2.70
2022-09-15T10:11:55.709Z,3.30
2022-09-15T10:15:43.692Z,3.10
2022-09-15T10:19:37.375Z,3.00
2022-09-15T10:23:43.379Z,2.50
2022-09-15T10:27:31.247Z,2.40
2022-09-15T10:33:52.868Z,2.00
2022-09-15T10:37:35.376Z,1.90
2022-09-15T10:40:55.386Z,1.80
2022-09-15T10:44:46.263Z,1.50
2022-09-15T10:48:08.156Z,1.90
2022-09-15T10:52:09.425Z,2.60
2022-09-15T10:55:58.768Z,2.30
2022-09-15T10:59:39.845Z,1.50
2022-09-15T11:03:00.282Z,2.00
2022-09-15T11:06:39.349Z,2.00
2022-09-15T11:10:31.047Z,1.90
2022-09-15T11:13:44.041Z,2.50
2022-09-15T11:17:45.657Z,2.30
2022-09-15T11:21:29.078Z,2.00
2022-09-15T11:25:11.545Z,2.30
2022-09-15T11:28:31.548Z,2.00
2022-09-15T11:31:57.096Z,2.20
2022-09-15T11:35:27.588Z,2.30
2022-09-15T11:38:53.546Z,2.10
2022-09-15T11:42:21.350Z,2.40
2022-09-15T11:45:37.349Z,2.30
2022-09-15T11:49:23.643Z,2.40
2022-09-15T11:53:09.607Z,2.80
2022-09-15T11:57:11.325Z,3.20
2022-09-15T12:00:50.909Z,2.50
2022-09-15T12:04:09.362Z,2.10
2022-09-15T12:07:23.937Z,2.80
2022-09-15T12:10:45.587Z,2.30
2022-09-15T12:13:53.269Z,2.70
2022-09-15T12:17:11.883Z,2.60
2022-09-15T12:20:31.598Z,2.50
2022-09-15T12:24:01.635Z,3.00
2022-09-15T12:27:21.036Z,2.40
2022-09-15T12:31:18.550Z,2.30
2022-09-15T12:35:11.384Z,3.00
2022-09-15T12:38:43.324Z,2.20
2022-09-15T12:41:43.945Z,1.60
2022-09-15T12:45:21.297Z,1.70
2022-09-15T12:48:39.205Z,1.90
2022-09-15T12:51:34.204Z,1.50
2022-09-15T12:54:22.818Z,1.60
2022-09-15T12:58:01.628Z,1.70
2022-09-15T13:01:52.172Z,1.10
2022-09-15T13:05:30.769Z,1.20
2022-09-15T13:09:14.128Z,1.20
2022-09-15T13:13:03.492Z,1.50
2022-09-15T13:16:53.103Z,1.90
2022-09-15T13:20:35.616Z,2.50
2022-09-15T13:24:25.603Z,1.70
2022-09-15T13:27:43.331Z,2.00
2022-09-15T13:31:30.780Z,2.30
2022-09-15T13:35:20.414Z,2.00
2022-09-15T13:38:45.308Z,2.00
2022-09-15T13:41:57.246Z,2.10
2022-09-15T13:45:02.626Z,1.80
2022-09-15T13:48:29.709Z,2.00
2022-09-15T13:52:11.146Z,1.80
2022-09-15T13:56:09.128Z,2.00
2022-09-15T13:59:25.830Z,1.60
2022-09-15T14:03:05.552Z,1.40
2022-09-15T14:06:46.650Z,1.70
2022-09-15T14:10:36.597Z,2.00
2022-09-15T14:14:07.092Z,1.80
2022-09-15T14:17:20.045Z,1.90
2022-09-15T14:20:43.485Z,2.20
2022-09-15T14:23:52.803Z,1.70
2022-09-15T14:27:00.561Z,2.00
2022-09-15T14:29:59.229Z,1.70
2022-09-15T14:33:26.333Z,1.90
2022-09-15T14:37:20.858Z,1.30
2022-09-15T14:41:13.263Z,1.50
2022-09-15T14:48:43.242Z,1.60
2022-09-15T14:51:58.312Z,2.00
2022-09-15T14:54:51.895Z,2.00
2022-09-15T14:57:51.342Z,2.00
2022-09-15T15:01:09.789Z,1.80
2022-09-15T15:05:00.198Z,1.20
2022-09-15T15:08:06.335Z,1.40
2022-09-15T15:11:16.488Z,1.20
2022-09-15T15:14:44.703Z,1.20
2022-09-15T15:17:55.783Z,1.30
2022-09-15T15:21:25.723Z,1.40
2022-09-15T15:24:49.922Z,1.00
2022-09-15T15:27:51.323Z,0.90
2022-09-15T15:30:50.733Z,1.20
2022-09-15T15:34:30.163Z,1.00
2022-09-15T15:37:45.877Z,1.00
2022-09-15T15:40:50.769Z,0.90
2022-09-15T15:44:31.676Z,1.30
2022-09-15T15:48:00.054Z,1.30
2022-09-15T15:51:49.857Z,1.40
2022-09-15T15:54:43.245Z,1.30
2022-09-15T15:57:59.867Z,1.20
2022-09-15T16:01:34.061Z,1.40
2022-09-15T16:04:25.868Z,1.20
2022-09-15T16:07:33.467Z,1.00
2022-09-15T16:10:48.664Z,1.10
2022-09-15T16:14:37.913Z,1.50
2022-09-15T16:17:10.243Z,1.60
2022-09-15T16:19:57.933Z,1.30
2022-09-15T16:22:53.136Z,1.10
2022-09-15T16:26:42.257Z,1.20
2022-09-15T16:30:22.285Z,1.70
2022-09-15T16:33:14.612Z,1.70
2022-09-15T16:36:16.669Z,1.70
2022-09-15T16:39:28.727Z,2.10
2022-09-15T16:42:22.545Z,1.80
2022-09-15T16:45:51.464Z,2.20
2022-09-15T16:49:00.539Z,1.90
2022-09-15T16:52:20.333Z,2.30
2022-09-15T16:55:55.185Z,2.30
2022-09-15T16:58:48.869Z,1.90
2022-09-15T17:01:35.485Z,1.70
2022-09-15T17:04:19.346Z,1.50
2022-09-15T17:07:27.415Z,1.20
2022-09-15T17:11:05.968Z,2.00
2022-09-15T17:13:39.828Z,1.80
2022-09-15T17:16:22.913Z,2.20
2022-09-15T17:19:11.742Z,1.50
2022-09-15T17:22:03.701Z,2.10
2022-09-15T17:25:11.825Z,1.40
2022-09-15T17:28:33.646Z,3.00
2022-09-15T17:32:02.986Z,1.50
2022-09-15T17:35:15.938Z,1.50
2022-09-15T17:38:32.870Z,2.00
2022-09-15T17:42:09.530Z,1.10
2022-09-15T17:45:21.362Z,1.70
2022-09-15T17:48:32.553Z,1.80
2022-09-15T17:51:47.005Z,1.70
2022-09-15T17:54:55.826Z,1.60
2022-09-15T17:58:06.099Z,1.80
2022-09-15T18:01:37.711Z,2.30
2022-09-15T18:05:10.030Z,1.60
2022-09-15T18:08:17.946Z,1.90
2022-09-15T18:11:21.956Z,2.40
2022-09-15T18:14:28.010Z,1.70
2022-09-15T18:17:57.105Z,2.60
2022-09-15T18:20:46.545Z,2.10
2022-09-15T18:23:20.874Z,2.50
2022-09-15T18:25:56.553Z,2.70
2022-09-15T18:28:35.539Z,2.40
2022-09-15T18:31:21.674Z,2.80
2022-09-15T18:34:25.595Z,2.20
2022-09-15T18:38:09.508Z,2.00
2022-09-15T18:41:20.041Z,1.90
2022-09-15T18:44:33.197Z,2.00
2022-09-15T18:47:11.283Z,2.40
2022-09-15T18:50:41.750Z,2.30
2022-09-15T18:53:58.412Z,2.30
2022-09-15T18:57:16.992Z,2.40
2022-09-15T18:59:55.586Z,2.20
2022-09-15T19:02:45.302Z,2.40
2022-09-15T19:06:18.706Z,2.90
2022-09-15T19:09:10.899Z,2.70
2022-09-15T19:12:00.336Z,2.80
2022-09-15T19:14:46.073Z,2.60
2022-09-15T19:17:59.643Z,2.70
2022-09-15T19:20:52.528Z,2.70
2022-09-15T19:23:46.642Z,2.80
2022-09-15T19:26:20.909Z,3.00
2022-09-15T19:29:07.463Z,3.40
2022-09-15T19:32:39.198Z,3.50
2022-09-15T19:35:20.447Z,3.10
2022-09-15T19:38:49.772Z,2.90
2022-09-15T19:41:24.694Z,2.30
2022-09-15T19:44:44.133Z,2.60
2022-09-15T19:47:35.584Z,2.10
2022-09-15T19:50:29.831Z,2.40
2022-09-15T19:53:01.459Z,1.70
2022-09-15T19:56:31.223Z,1.90
2022-09-15T19:59:13.884Z,2.30
2022-09-15T20:01:47.941Z,2.00
2022-09-15T20:04:39.875Z,1.90
2022-09-15T20:07:11.579Z,1.70
2022-09-15T20:10:33.814Z,1.90
2022-09-15T20:13:06.134Z,2.10
2022-09-15T20:15:58.590Z,1.90
2022-09-15T20:18:33.719Z,1.40
2022-09-15T20:21:50.242Z,1.60
2022-09-15T20:24:22.926Z,2.20
2022-09-15T20:28:13.222Z,1.50
2022-09-15T20:30:57.596Z,1.80
2022-09-15T20:33:54.866Z,2.00
2022-09-15T20:37:27.738Z,1.70
2022-09-15T20:41:10.757Z,1.40
2022-09-15T20:43:41.930Z,1.70
2022-09-15T20:46:46.885Z,1.70
2022-09-15T20:50:27.467Z,2.00
2022-09-15T20:53:30.544Z,1.60
2022-09-15T20:56:03.506Z,1.70
2022-09-15T20:59:37.359Z,1.60
2022-09-15T21:02:45.121Z,1.80
2022-09-15T21:06:00.300Z,1.60
2022-09-15T21:09:29.370Z,2.30
2022-09-15T21:12:20.955Z,2.10
2022-09-15T21:15:10.048Z,1.90
2022-09-15T21:18:24.269Z,2.20
2022-09-15T21:21:22.093Z,1.80
2022-09-15T21:24:30.918Z,1.70
2022-09-15T21:27:52.337Z,1.70
2022-09-15T21:30:54.060Z,1.70
2022-09-15T21:33:23.346Z,1.70
2022-09-15T21:36:09.692Z,2.00
2022-09-15T21:38:59.761Z,1.80
2022-09-15T21:41:46.528Z,2.00
2022-09-15T21:45:15.355Z,2.00
2022-09-15T21:47:56.887Z,1.70
2022-09-15T21:50:49.322Z,2.10
2022-09-15T21:53:28.482Z,1.90
2022-09-15T21:56:37.272Z,1.60
2022-09-15T21:59:36.204Z,1.90
2022-09-15T22:02:48.308Z,1.90
2022-09-15T22:05:25.896Z,1.60
2022-09-15T22:08:08.798Z,2.40
2022-09-15T22:11:20.375Z,1.60
2022-09-15T22:14:11.882Z,1.70
2022-09-15T22:16:42.566Z,1.90
2022-09-15T22:19:43.042Z,2.00
2022-09-15T22:23:04.555Z,1.60
2022-09-15T22:25:33.540Z,1.70
2022-09-15T22:29:02.550Z,1.80
2022-09-15T22:32:16.065Z,1.90
2022-09-15T22:35:19.689Z,2.20
2022-09-15T22:38:03.853Z,2.10
2022-09-15T22:40:56.257Z,2.50
2022-09-15T22:43:27.731Z,2.70
2022-09-15T22:45:58.619Z,2.30
2022-09-15T22:48:52.120Z,2.70
2022-09-15T22:51:20.804Z,2.40
2022-09-15T22:54:09.580Z,2.10
2022-09-15T22:57:08.400Z,2.20
2022-09-15T23:00:16.376Z,1.70
2022-09-15T23:02:46.792Z,2.00
2022-09-15T23:05:19.965Z,2.10
2022-09-15T23:08:09.581Z,1.90
2022-09-15T23:10:43.587Z,2.30
2022-09-15T23:13:15.587Z,1.80
2022-09-15T23:15:50.325Z,1.90
2022-09-15T23:18:39.157Z,2.10
2022-09-15T23:21:40.570Z,1.70
2022-09-15T23:24:12.410Z,1.90
2022-09-15T23:26:43.361Z,1.90
2022-09-15T23:29:27.831Z,1.80
2022-09-15T23:31:59.061Z,1.60
2022-09-15T23:34:30.141Z,1.90
2022-09-15T23:37:54.459Z,3.40
2022-09-15T23:40:23.534Z,1.80
2022-09-15T23:42:52.112Z,1.70
2022-09-15T23:45:35.316Z,1.80
2022-09-15T23:48:23.886Z,1.60
2022-09-15T23:51:22.784Z,1.70
2022-09-15T23:53:51.195Z,1.30
2022-09-15T23:56:25.120Z,1.70
2022-09-15T23:58:56.706Z,1.70
